createdAt,value
2023-02-18T00:01:58.917Z,102061.09
2023-02-18T00:04:27.002Z,102042.19
2023-02-18T00:06:57.082Z,101982.03
2023-02-18T00:09:25.824Z,101943.72
2023-02-18T00:11:54.055Z,101980.16
2023-02-18T00:14:24.227Z,101872.59
2023-02-18T00:16:52.710Z,102059.63
2023-02-18T00:19:22.632Z,101665.16
2023-02-18T00:21:50.633Z,101994.97
2023-02-18T00:24:20.355Z,101988.97
2023-02-18T00:26:51.557Z,101596.81
2023-02-18T00:29:21.042Z,101934.50
2023-02-18T00:31:50.936Z,101591.41
2023-02-18T00:34:20.850Z,101911.06
2023-02-18T00:36:50.881Z,101642.28
2023-02-18T00:39:18.748Z,101953.81
2023-02-18T00:41:46.603Z,101762.47
2023-02-18T00:44:18.078Z,102035.66
2023-02-18T00:46:48.488Z,102041.91
2023-02-18T00:49:17.769Z,102034.56
2023-02-18T00:51:47.140Z,102025.59
2023-02-18T00:54:14.909Z,102026.09
2023-02-18T00:56:42.708Z,101943.75
2023-02-18T00:59:11.049Z,101545.16
2023-02-18T01:01:39.163Z,101927.63
2023-02-18T01:04:08.972Z,102016.88
2023-02-18T01:06:37.063Z,101866.34
2023-02-18T01:09:06.574Z,101541.69
2023-02-18T01:11:34.784Z,102009.53
2023-02-18T01:14:07.271Z,102008.16
2023-02-18T01:16:37.879Z,101930.78
2023-02-18T01:19:09.407Z,101709.06
2023-02-18T01:21:38.971Z,101514.31
2023-02-18T01:24:07.230Z,101968.84
2023-02-18T01:26:37.417Z,101865.72
2023-02-18T01:29:05.313Z,102013.59
2023-02-18T01:31:33.363Z,101965.81
2023-02-18T01:34:04.564Z,102006.47
2023-02-18T01:36:32.435Z,101692.13
2023-02-18T01:39:00.859Z,101990.97
2023-02-18T01:41:29.283Z,101907.13
2023-02-18T01:44:20.116Z,101992.66
2023-02-18T01:46:52.452Z,101933.13
2023-02-18T01:49:31.276Z,101988.50
2023-02-18T01:52:13.645Z,101979.22
2023-02-18T01:54:46.065Z,101986.38
2023-02-18T01:57:31.744Z,101983.06
2023-02-18T02:00:06.902Z,101540.28
2023-02-18T02:02:50.786Z,101971.06
2023-02-18T02:05:20.525Z,102002.75
2023-02-18T02:07:53.816Z,101677.09
2023-02-18T02:10:21.709Z,101820.53
2023-02-18T02:13:21.203Z,101992.13
2023-02-18T02:15:58.739Z,101675.56
2023-02-18T02:19:06.699Z,101972.78
2023-02-18T02:22:04.422Z,101942.59
2023-02-18T02:25:01.652Z,101979.88
2023-02-18T02:27:49.158Z,101975.50
2023-02-18T02:30:41.785Z,101972.72
2023-02-18T02:33:46.959Z,101966.72
2023-02-18T02:36:32.915Z,101972.97
2023-02-18T02:39:19.227Z,101964.81
2023-02-18T02:42:01.070Z,101958.56
2023-02-18T02:44:58.062Z,101962.09
2023-02-18T02:47:37.290Z,101961.84
2023-02-18T02:50:18.209Z,101960.75
2023-02-18T02:52:53.021Z,101959.13
2023-02-18T02:55:21.325Z,101960.88
2023-02-18T02:57:55.020Z,101961.50
2023-02-18T03:01:10.196Z,101959.84
2023-02-18T03:04:05.013Z,101817.75
2023-02-18T03:06:49.256Z,101955.75
2023-02-18T03:09:42.551Z,101783.59
2023-02-18T03:12:31.370Z,101955.75
2023-02-18T03:15:12.614Z,101955.44
2023-02-18T03:18:23.715Z,101908.09
2023-02-18T03:21:46.245Z,101958.81
2023-02-18T03:24:53.560Z,101926.81
2023-02-18T03:27:35.120Z,101945.97
2023-02-18T03:30:21.692Z,101946.72
2023-02-18T03:32:56.541Z,101944.00
2023-02-18T03:35:28.542Z,101920.59
2023-02-18T03:38:14.452Z,101947.28
2023-02-18T03:40:42.868Z,101786.09
2023-02-18T03:43:11.048Z,101953.78
2023-02-18T03:45:40.333Z,101940.78
2023-02-18T03:48:09.717Z,101678.72
2023-02-18T03:50:37.619Z,101902.72
2023-02-18T03:53:09.854Z,101864.25
2023-02-18T03:55:38.931Z,101935.84
2023-02-18T03:58:08.503Z,101806.97
2023-02-18T04:00:36.310Z,101885.38
2023-02-18T04:03:05.246Z,101794.28
2023-02-18T04:05:33.319Z,101879.28
2023-02-18T04:08:01.112Z,101892.22
2023-02-18T04:10:28.919Z,101932.56
2023-02-18T04:12:56.799Z,101816.59
2023-02-18T04:15:24.805Z,101926.03
2023-02-18T04:17:53.194Z,101873.25
2023-02-18T04:20:22.824Z,101927.13
2023-02-18T04:22:50.777Z,101915.03
2023-02-18T04:25:18.756Z,101857.38
2023-02-18T04:27:46.623Z,101896.97
2023-02-18T04:30:17.849Z,101889.41
2023-02-18T04:32:46.726Z,101892.38
2023-02-18T04:35:14.780Z,101928.88
2023-02-18T04:37:42.523Z,101908.16
2023-02-18T04:40:10.922Z,101934.06
2023-02-18T04:42:39.678Z,101899.78
2023-02-18T04:45:07.906Z,101819.31
2023-02-18T04:47:35.784Z,101888.50
2023-02-18T04:50:04.301Z,101816.50
2023-02-18T04:52:33.902Z,101843.50
2023-02-18T04:55:01.742Z,101732.63
2023-02-18T04:57:30.044Z,101887.91
2023-02-18T04:59:57.978Z,101601.78
2023-02-18T05:02:28.629Z,101922.63
2023-02-18T05:04:56.467Z,101928.53
2023-02-18T05:07:26.945Z,101559.41
2023-02-18T05:09:55.817Z,101916.41
2023-02-18T05:12:23.696Z,101867.13
2023-02-18T05:14:52.577Z,101887.09
2023-02-18T05:17:20.597Z,101873.63
2023-02-18T05:19:48.478Z,101883.50
2023-02-18T05:22:16.290Z,101896.97
2023-02-18T05:24:48.077Z,101931.81
2023-02-18T05:27:15.871Z,101948.19
2023-02-18T05:29:43.675Z,101927.09
2023-02-18T05:32:11.519Z,101937.34
2023-02-18T05:34:39.254Z,101893.03
2023-02-18T05:37:06.931Z,101881.59
2023-02-18T05:39:34.760Z,101843.16
2023-02-18T05:42:02.494Z,101858.41
2023-02-18T05:44:30.365Z,101883.06
2023-02-18T05:47:00.580Z,101950.34
2023-02-18T05:49:29.719Z,101920.69
2023-02-18T05:51:59.125Z,101944.09
2023-02-18T05:54:27.755Z,101947.88
2023-02-18T05:56:56.231Z,101943.75
2023-02-18T05:59:25.105Z,101864.66
2023-02-18T06:01:54.136Z,101952.88
2023-02-18T06:04:23.633Z,101933.13
2023-02-18T06:06:51.980Z,101950.66
2023-02-18T06:09:19.971Z,101955.00
2023-02-18T06:11:49.719Z,101955.00
2023-02-18T06:14:17.718Z,101643.00
2023-02-18T06:16:46.207Z,101676.09
2023-02-18T06:19:14.079Z,101928.31
2023-02-18T06:21:41.814Z,101920.34
2023-02-18T06:24:09.593Z,101919.03
2023-02-18T06:26:37.675Z,101887.41
2023-02-18T06:29:05.369Z,101834.91
2023-02-18T06:31:35.889Z,101868.31
2023-02-18T06:34:03.911Z,101886.97
2023-02-18T06:36:31.808Z,101756.34
2023-02-18T06:38:59.561Z,101885.59
2023-02-18T06:41:27.355Z,101856.38
2023-02-18T06:43:58.702Z,101957.56
2023-02-18T06:46:26.571Z,101973.34
2023-02-18T06:48:54.906Z,101920.66
2023-02-18T06:51:23.962Z,101893.75
2023-02-18T06:53:52.225Z,101975.50
2023-02-18T06:56:20.122Z,101868.47
2023-02-18T06:58:49.232Z,101967.09
2023-02-18T07:01:17.021Z,101868.22
2023-02-18T07:03:44.951Z,101991.31
2023-02-18T07:06:13.015Z,101998.63
2023-02-18T07:08:41.264Z,101988.41
2023-02-18T07:11:09.015Z,101999.53
2023-02-18T07:13:42.129Z,101997.41
2023-02-18T07:16:10.334Z,101624.03
2023-02-18T07:18:40.405Z,101775.00
2023-02-18T07:21:10.389Z,102001.78
2023-02-18T07:23:38.819Z,102002.34
2023-02-18T07:26:09.603Z,101979.28
2023-02-18T07:28:39.745Z,102008.63
2023-02-18T07:31:10.692Z,101967.34
2023-02-18T07:33:39.531Z,101947.91
2023-02-18T07:36:10.487Z,102020.19
2023-02-18T07:38:41.285Z,101958.91
2023-02-18T07:41:22.760Z,102015.78
2023-02-18T07:43:50.845Z,101926.69
2023-02-18T07:46:19.352Z,101999.66
2023-02-18T07:48:47.208Z,101944.97
2023-02-18T07:51:16.243Z,101850.81
2023-02-18T07:53:46.051Z,102034.28
2023-02-18T07:56:15.286Z,102018.88
2023-02-18T07:58:43.128Z,102028.03
2023-02-18T08:01:15.274Z,102033.47
2023-02-18T08:03:43.278Z,102026.00
2023-02-18T08:06:25.748Z,102023.38
2023-02-18T08:08:55.218Z,102023.56
2023-02-18T08:11:23.445Z,102020.59
2023-02-18T08:13:55.846Z,102034.84
2023-02-18T08:16:24.318Z,101991.38
2023-02-18T08:18:53.173Z,102000.41
2023-02-18T08:21:23.414Z,102027.66
2023-02-18T08:23:52.157Z,102029.06
2023-02-18T08:26:22.740Z,101944.22
2023-02-18T08:28:50.896Z,101712.31
2023-02-18T08:31:23.129Z,102006.25
2023-02-18T08:33:52.813Z,102045.16
2023-02-18T08:36:20.915Z,102037.00
2023-02-18T08:38:48.887Z,102015.72
2023-02-18T08:41:19.311Z,101949.66
2023-02-18T08:43:48.307Z,102011.69
2023-02-18T08:46:25.239Z,102023.81
2023-02-18T08:49:04.951Z,102037.31
2023-02-18T08:51:33.547Z,101900.81
2023-02-18T08:54:01.589Z,102037.00
2023-02-18T08:56:29.752Z,102019.19
2023-02-18T08:58:58.727Z,102032.84
2023-02-18T09:01:27.496Z,102002.66
2023-02-18T09:04:00.512Z,101896.22
2023-02-18T09:06:30.073Z,102023.56
2023-02-18T09:08:59.450Z,102010.63
2023-02-18T09:11:27.500Z,101966.69
2023-02-18T09:13:55.363Z,102045.38
2023-02-18T09:16:26.135Z,102046.94
2023-02-18T09:18:54.266Z,101745.91
2023-02-18T09:21:23.795Z,102024.47
2023-02-18T09:23:51.921Z,102051.63
2023-02-18T09:26:23.241Z,102051.84
2023-02-18T09:28:54.291Z,102051.63
2023-02-18T09:31:24.474Z,102050.59
2023-02-18T09:33:59.779Z,102015.88
2023-02-18T09:36:28.347Z,102059.81
2023-02-18T09:38:58.135Z,102031.34
2023-02-18T09:41:50.683Z,102017.16
2023-02-18T09:44:51.134Z,102064.41
2023-02-18T09:47:45.430Z,102046.97
2023-02-18T09:50:21.309Z,102075.19
2023-02-18T09:52:50.215Z,102043.16
2023-02-18T09:55:33.953Z,102070.25
2023-02-18T09:58:10.410Z,101995.31
2023-02-18T10:00:47.776Z,102000.19
2023-02-18T10:03:20.511Z,102073.16
2023-02-18T10:05:58.180Z,102066.59
2023-02-18T10:08:29.007Z,102070.34
2023-02-18T10:10:57.393Z,102066.47
2023-02-18T10:13:30.964Z,102070.78
2023-02-18T10:15:59.314Z,102054.81
2023-02-18T10:18:35.297Z,102045.13
2023-02-18T10:21:08.339Z,102071.66
2023-02-18T10:23:40.891Z,102065.06
2023-02-18T10:26:16.965Z,102007.41
2023-02-18T10:28:46.698Z,102063.94
2023-02-18T10:31:20.850Z,102044.97
2023-02-18T10:34:34.513Z,102049.13
2023-02-18T10:37:15.832Z,102010.41
2023-02-18T10:40:08.239Z,102062.50
2023-02-18T10:43:16.946Z,102047.13
2023-02-18T10:46:18.985Z,102063.81
2023-02-18T10:49:01.020Z,102025.91
2023-02-18T10:51:33.408Z,102060.75
2023-02-18T10:54:02.604Z,102064.25
2023-02-18T10:56:50.985Z,102058.78
2023-02-18T10:59:24.569Z,102051.44
2023-02-18T11:02:19.538Z,102057.94
2023-02-18T11:04:47.899Z,102051.66
2023-02-18T11:07:47.126Z,102043.47
2023-02-18T11:10:26.411Z,102043.28
2023-02-18T11:13:05.617Z,102030.91
2023-02-18T11:15:34.786Z,101989.25
2023-02-18T11:18:25.265Z,102020.50
2023-02-18T11:21:03.858Z,102000.34
2023-02-18T11:23:33.165Z,102031.31
2023-02-18T11:26:13.252Z,101985.31
2023-02-18T11:28:50.482Z,102025.38
2023-02-18T11:31:22.264Z,102022.91
2023-02-18T11:34:03.446Z,102014.75
2023-02-18T11:36:35.250Z,101984.03
2023-02-18T11:39:34.084Z,102005.06
2023-02-18T11:42:05.300Z,101998.06
2023-02-18T11:44:34.807Z,101989.88
2023-02-18T11:47:12.605Z,101910.31
2023-02-18T11:50:00.247Z,101985.38
2023-02-18T11:52:44.976Z,101892.22
2023-02-18T11:55:22.471Z,101893.53
2023-02-18T11:58:08.837Z,101974.16
2023-02-18T12:00:43.063Z,101961.75
2023-02-18T12:03:29.580Z,101961.75
2023-02-18T12:06:14.324Z,101954.66
2023-02-18T12:09:06.433Z,101953.00
2023-02-18T12:11:40.663Z,101933.28
2023-02-18T12:14:23.281Z,101918.53
2023-02-18T12:17:22.357Z,101939.41
2023-02-18T12:20:03.450Z,101929.31
2023-02-18T12:23:10.969Z,101914.59
2023-02-18T12:26:08.155Z,101924.69
2023-02-18T12:28:51.673Z,101922.56
2023-02-18T12:31:31.094Z,101916.59
2023-02-18T12:34:33.017Z,101913.88
2023-02-18T12:37:00.755Z,101900.81
2023-02-18T12:39:47.085Z,101810.94
2023-02-18T12:42:31.984Z,101899.75
2023-02-18T12:45:05.917Z,101897.88
2023-02-18T12:48:01.912Z,101889.44
2023-02-18T12:50:59.373Z,101869.75
2023-02-18T12:53:42.599Z,101870.88
2023-02-18T12:56:10.610Z,101878.56
2023-02-18T12:59:16.219Z,101868.81
2023-02-18T13:01:59.367Z,101869.97
2023-02-18T13:04:54.732Z,101869.44
2023-02-18T13:07:48.117Z,101851.66
2023-02-18T13:10:48.638Z,101862.34
2023-02-18T13:13:31.686Z,101793.94
2023-02-18T13:16:06.916Z,101853.59
2023-02-18T13:18:36.586Z,101855.00
2023-02-18T13:21:13.119Z,101750.72
2023-02-18T13:24:02.779Z,101838.66
2023-02-18T13:26:33.325Z,101827.66
2023-02-18T13:29:22.351Z,101836.47
2023-02-18T13:32:10.936Z,101836.78
2023-02-18T13:34:50.558Z,101831.91
2023-02-18T13:37:52.662Z,101833.00
2023-02-18T13:40:31.379Z,101826.69
2023-02-18T13:43:21.641Z,101829.41
2023-02-18T13:46:11.105Z,101807.81
2023-02-18T13:48:53.906Z,101812.78
2023-02-18T13:51:33.866Z,101801.91
2023-02-18T13:54:13.149Z,101755.38
2023-02-18T13:56:46.365Z,101805.75
2023-02-18T13:59:43.677Z,101797.59
2023-02-18T14:02:21.118Z,101794.53
2023-02-18T14:04:51.106Z,101732.19
2023-02-18T14:07:37.042Z,101785.00
2023-02-18T14:10:31.935Z,101786.66
2023-02-18T14:12:59.810Z,101774.94
2023-02-18T14:15:28.069Z,101778.44
2023-02-18T14:18:02.923Z,101774.63
2023-02-18T14:20:39.566Z,101770.53
2023-02-18T14:23:19.742Z,101773.78
2023-02-18T14:26:07.433Z,101760.97
2023-02-18T14:28:39.010Z,101766.44
2023-02-18T14:31:14.757Z,101765.63
2023-02-18T14:33:50.791Z,101762.09
2023-02-18T14:36:30.623Z,101759.91
2023-02-18T14:39:10.336Z,101677.91
2023-02-18T14:42:03.354Z,101729.31
2023-02-18T14:45:05.412Z,101749.50
2023-02-18T14:47:45.523Z,101738.88
2023-02-18T14:50:18.751Z,101716.72
2023-02-18T14:53:03.656Z,101736.47
2023-02-18T14:55:46.577Z,101731.53
2023-02-18T14:58:29.840Z,101725.00
2023-02-18T15:00:57.706Z,101725.50
2023-02-18T15:03:28.929Z,101717.38
2023-02-18T15:05:56.803Z,101663.81
2023-02-18T15:08:26.515Z,101619.50
2023-02-18T15:11:01.914Z,101715.19
2023-02-18T15:13:33.324Z,101714.66
2023-02-18T15:16:05.575Z,101629.31
2023-02-18T15:18:38.199Z,101699.94
2023-02-18T15:21:10.244Z,101521.94
2023-02-18T15:23:41.311Z,101589.63
2023-02-18T15:26:15.458Z,101467.56
2023-02-18T15:28:55.686Z,101694.00
2023-02-18T15:31:27.595Z,101692.91
2023-02-18T15:33:57.001Z,101695.63
2023-02-18T15:36:27.252Z,101673.44
2023-02-18T15:38:57.536Z,101698.06
2023-02-18T15:41:25.733Z,101691.00
2023-02-18T15:44:04.179Z,101688.56
2023-02-18T15:46:33.399Z,101687.47
2023-02-18T15:49:09.076Z,101534.44
2023-02-18T15:51:39.361Z,101687.47
2023-02-18T15:54:07.285Z,101691.00
2023-02-18T15:56:45.562Z,101542.69
2023-02-18T15:59:43.053Z,101507.72
2023-02-18T16:02:23.276Z,101576.00
2023-02-18T16:05:00.640Z,101688.00
2023-02-18T16:07:39.913Z,101664.28
2023-02-18T16:10:23.930Z,101683.94
2023-02-18T16:13:01.919Z,101673.84
2023-02-18T16:15:32.686Z,101576.59
2023-02-18T16:18:01.032Z,101678.25
2023-02-18T16:20:38.470Z,101682.09
2023-02-18T16:23:16.454Z,101649.31
2023-02-18T16:25:51.797Z,101560.66
2023-02-18T16:28:29.212Z,101683.72
2023-02-18T16:31:00.032Z,101682.34
2023-02-18T16:33:27.879Z,101667.81
2023-02-18T16:35:58.138Z,101631.81
2023-02-18T16:38:29.474Z,101679.56
2023-02-18T16:43:43.735Z,101683.38
2023-02-18T16:46:24.701Z,101663.66
2023-02-18T16:48:58.711Z,101606.53
2023-02-18T16:51:34.310Z,101686.38
2023-02-18T16:54:04.495Z,101427.88
2023-02-18T16:56:36.738Z,101481.25
2023-02-18T16:59:05.575Z,101551.41
2023-02-18T17:01:42.799Z,101344.03
2023-02-18T17:04:16.167Z,101501.63
2023-02-18T17:06:50.882Z,101544.78
2023-02-18T17:09:22.908Z,101409.56
2023-02-18T17:11:55.962Z,101469.81
2023-02-18T17:14:25.087Z,101657.38
2023-02-18T17:16:56.275Z,101473.72
2023-02-18T17:19:24.441Z,101420.78
2023-02-18T17:21:52.296Z,101604.28
2023-02-18T17:24:21.363Z,101693.09
2023-02-18T17:26:52.470Z,101708.94
2023-02-18T17:29:24.539Z,101646.25
2023-02-18T17:31:57.067Z,101618.38
2023-02-18T17:34:31.403Z,101705.78
2023-02-18T17:37:03.462Z,101713.47
2023-02-18T17:39:33.605Z,101723.25
2023-02-18T17:42:04.298Z,101685.56
2023-02-18T17:44:32.509Z,101638.81
2023-02-18T17:47:01.943Z,101559.19
2023-02-18T17:49:32.662Z,101520.13
2023-02-18T17:52:02.378Z,101724.94
2023-02-18T17:54:30.756Z,101726.03
2023-02-18T17:56:59.972Z,101694.63
2023-02-18T17:59:33.344Z,101667.38
2023-02-18T18:02:01.132Z,101737.41
2023-02-18T18:04:29.448Z,101722.31
2023-02-18T18:06:57.283Z,101536.47
2023-02-18T18:09:25.715Z,101747.19
2023-02-18T18:11:53.805Z,101747.69
2023-02-18T18:14:21.581Z,101696.78
2023-02-18T18:16:49.467Z,101754.56
2023-02-18T18:19:17.158Z,101699.25
2023-02-18T18:21:47.126Z,101722.56
2023-02-18T18:24:15.273Z,101730.97
2023-02-18T18:29:14.659Z,101754.06
2023-02-18T18:31:43.985Z,101757.84
2023-02-18T18:34:17.166Z,101759.50
2023-02-18T18:36:44.981Z,101745.53
2023-02-18T18:39:13.008Z,101718.16
2023-02-18T18:41:41.016Z,101707.19
2023-02-18T18:44:11.296Z,101770.41
2023-02-18T18:46:41.072Z,101760.06
2023-02-18T18:49:09.147Z,101734.63
2023-02-18T18:51:37.381Z,101762.78
2023-02-18T18:54:06.405Z,101732.72
2023-02-18T18:56:35.933Z,101762.03
2023-02-18T18:59:04.208Z,101729.72
2023-02-18T19:01:33.427Z,101758.47
2023-02-18T19:04:03.159Z,101757.94
2023-02-18T19:06:32.196Z,101673.94
2023-02-18T19:09:00.232Z,101751.69
2023-02-18T19:11:28.330Z,101672.84
2023-02-18T19:13:56.087Z,101756.41
2023-02-18T19:16:44.429Z,101763.63
2023-02-18T19:19:14.904Z,101745.31
2023-02-18T19:21:46.834Z,101704.00
2023-02-18T19:24:14.749Z,101401.28
2023-02-18T19:26:42.511Z,101680.38
2023-02-18T19:29:10.428Z,101663.88
2023-02-18T19:31:38.464Z,101736.56
2023-02-18T19:34:06.396Z,101764.69
2023-02-18T19:36:34.361Z,101774.97
2023-02-18T19:39:04.127Z,101715.34
2023-02-18T19:41:32.166Z,101768.72
2023-02-18T19:44:00.088Z,101739.19
2023-02-18T19:46:28.073Z,101656.84
2023-02-18T19:48:56.264Z,101758.28
2023-02-18T19:51:25.159Z,101778.31
2023-02-18T19:53:53.229Z,101700.06
2023-02-18T19:56:21.999Z,101775.59
2023-02-18T19:58:49.719Z,101670.53
2023-02-18T20:01:18.484Z,101751.41
2023-02-18T20:03:47.495Z,101709.81
2023-02-18T20:06:21.103Z,101651.31
2023-02-18T20:08:48.983Z,101738.56
2023-02-18T20:11:17.306Z,101771.72
2023-02-18T20:13:45.301Z,101775.50
2023-02-18T20:16:13.115Z,101758.75
2023-02-18T20:18:42.170Z,101761.81
2023-02-18T20:21:12.002Z,101404.13
2023-02-18T20:23:40.227Z,101788.84
2023-02-18T20:26:16.054Z,101790.25
2023-02-18T20:28:44.830Z,101745.44
2023-02-18T20:31:16.109Z,101744.84
2023-02-18T20:33:45.797Z,101739.94
2023-02-18T20:36:18.820Z,101784.22
2023-02-18T20:38:49.997Z,101650.44
2023-02-18T20:41:19.618Z,101760.75
2023-02-18T20:43:48.391Z,101751.44
2023-02-18T20:46:22.927Z,101739.97
2023-02-18T20:48:52.295Z,101752.50
2023-02-18T20:51:22.516Z,101781.78
2023-02-18T20:53:52.032Z,101797.84
2023-02-18T20:56:21.711Z,101784.75
2023-02-18T20:58:49.950Z,101774.97
2023-02-18T21:01:22.099Z,101782.31
2023-02-18T21:03:50.241Z,101747.81
2023-02-18T21:06:21.891Z,101779.53
2023-02-18T21:08:52.237Z,101774.91
2023-02-18T21:11:22.823Z,101764.50
2023-02-18T21:13:52.480Z,101772.72
2023-02-18T21:16:22.255Z,101776.53
2023-02-18T21:18:50.316Z,101695.06
2023-02-18T21:21:22.938Z,101727.69
2023-02-18T21:23:52.587Z,101766.81
2023-02-18T21:26:23.721Z,101770.38
2023-02-18T21:28:55.171Z,101426.75
2023-02-18T21:31:25.308Z,101766.81
2023-02-18T21:33:54.014Z,101692.06
2023-02-18T21:36:22.488Z,101529.44
2023-02-18T21:38:55.075Z,101380.94
2023-02-18T21:41:25.056Z,101699.84
2023-02-18T21:43:53.192Z,101493.69
2023-02-18T21:46:34.554Z,101723.38
2023-02-18T21:49:03.321Z,101761.91
2023-02-18T21:51:53.319Z,101759.72
2023-02-18T21:54:22.868Z,101763.19
2023-02-18T21:56:50.861Z,101650.75
2023-02-18T21:59:20.596Z,101763.19
2023-02-18T22:01:49.355Z,101763.72
2023-02-18T22:04:17.269Z,101754.47
2023-02-18T22:06:45.564Z,101762.09
2023-02-18T22:09:13.691Z,101724.53
2023-02-18T22:11:43.075Z,101689.53
2023-02-18T22:14:13.199Z,101741.94
2023-02-18T22:16:42.073Z,101679.59
2023-02-18T22:19:12.384Z,101726.81
2023-02-18T22:21:41.153Z,101760.59
2023-02-18T22:24:11.094Z,101704.44
2023-02-18T22:26:39.018Z,101689.88
2023-02-18T22:29:06.667Z,101758.41
2023-02-18T22:31:34.472Z,101729.06
2023-02-18T22:34:02.624Z,101667.97
2023-02-18T22:36:30.749Z,101749.88
2023-02-18T22:39:00.709Z,101762.22
2023-02-18T22:41:30.434Z,101754.25
2023-02-18T22:44:00.642Z,101686.22
2023-02-18T22:46:29.879Z,101705.38
2023-02-18T22:48:58.837Z,101749.16
2023-02-18T22:51:41.511Z,101749.44
2023-02-18T22:54:16.955Z,101698.19
2023-02-18T22:56:46.638Z,101732.13
2023-02-18T22:59:16.742Z,101746.06
2023-02-18T23:01:49.709Z,101745.81
2023-02-18T23:04:19.755Z,101760.53
2023-02-18T23:06:48.133Z,101714.91
2023-02-18T23:09:19.916Z,101704.19
2023-02-18T23:11:53.409Z,101742.25
2023-02-18T23:14:22.050Z,101710.97
2023-02-18T23:17:14.010Z,101713.75
2023-02-18T23:19:47.167Z,101705.28
2023-02-18T23:22:19.923Z,101544.44
2023-02-18T23:24:49.747Z,101727.78
2023-02-18T23:27:18.276Z,101743.09
2023-02-18T23:29:47.491Z,101683.22
2023-02-18T23:32:18.064Z,101763.22
2023-02-18T23:34:50.183Z,101743.03
2023-02-18T23:37:18.594Z,101658.78
2023-02-18T23:39:48.051Z,101727.44
2023-02-18T23:42:17.414Z,101729.97
2023-02-18T23:44:46.491Z,101730.78
2023-02-18T23:47:14.321Z,101718.72
2023-02-18T23:49:43.315Z,101687.84
2023-02-18T23:52:11.266Z,101672.00
2023-02-18T23:54:39.964Z,101607.22
2023-02-18T23:57:08.956Z,101681.22
2023-02-18T23:59:37.173Z,101658.53
